Time;durP1;ratioP1;P1;durP2;ratioP2;P2;SDS_P1;SDS_P2;PMS_P1;PMS_P2;Temp;Humidity;BMP_temperature;BMP_pressure;BME280_temperature;BME280_humidity;BME280_pressure;Samples;Min_cycle;Max_cycle;Signal;HPM_P1;HPM_P2
2021/12/12 00:01:41;;;;;;;17.23;6.28;;;3.00;99.90;;;;;;4997291;28;20041;-84
2021/12/12 00:04:13;;;;;;;17.27;6.25;;;3.00;99.90;;;;;;4987881;28;20061;-83
2021/12/12 00:06:50;;;;;;;14.80;6.22;;;3.00;99.90;;;;;;4997629;28;20029;-84
2021/12/12 00:09:26;;;;;;;20.13;6.97;;;3.00;99.90;;;;;;4996178;28;20033;-84
2021/12/12 00:11:51;;;;;;;12.98;5.75;;;3.00;99.90;;;;;;4995438;28;20045;-84
2021/12/12 00:14:22;;;;;;;20.67;6.10;;;3.00;99.90;;;;;;4971167;28;20486;-84
2021/12/12 00:16:48;;;;;;;13.02;5.88;;;3.00;99.90;;;;;;4980333;28;20040;-84
2021/12/12 00:19:13;;;;;;;18.63;6.43;;;3.00;99.90;;;;;;4974469;28;20053;-84
2021/12/12 00:21:41;;;;;;;12.10;6.05;;;3.00;99.90;;;;;;4974186;28;20026;-83
2021/12/12 00:24:07;;;;;;;14.07;5.93;;;3.00;99.90;;;;;;5006951;28;20040;-84
2021/12/12 00:26:33;;;;;;;10.90;5.13;;;3.00;99.90;;;;;;4975952;28;20026;-84
2021/12/12 00:28:58;;;;;;;10.13;4.85;;;3.00;99.90;;;;;;5005944;28;20064;-84
2021/12/12 00:31:24;;;;;;;17.48;5.60;;;3.00;99.90;;;;;;4976317;28;20555;-84
2021/12/12 00:33:54;;;;;;;16.23;5.88;;;3.00;99.90;;;;;;4979071;28;20073;-84
2021/12/12 00:36:20;;;;;;;17.88;5.65;;;3.00;99.90;;;;;;4990332;28;20025;-83
2021/12/12 00:38:51;;;;;;;16.25;5.88;;;3.10;99.90;;;;;;5011272;28;20061;-84
2021/12/12 00:41:24;;;;;;;17.23;5.38;;;3.10;99.90;;;;;;4973711;28;20033;-84
2021/12/12 00:43:50;;;;;;;9.80;4.93;;;3.10;99.90;;;;;;4970481;28;20037;-84
2021/12/12 00:46:15;;;;;;;15.98;5.15;;;3.10;99.90;;;;;;4980628;28;20169;-84
2021/12/12 00:48:42;;;;;;;11.90;4.22;;;3.10;99.90;;;;;;4991263;28;20029;-84
2021/12/12 00:51:09;;;;;;;9.75;3.63;;;3.10;99.90;;;;;;4995138;28;20176;-83
2021/12/12 00:53:35;;;;;;;6.85;2.95;;;3.10;99.90;;;;;;4979323;28;20030;-84
2021/12/12 00:56:00;;;;;;;14.98;5.28;;;3.20;99.90;;;;;;4971463;28;20075;-84
2021/12/12 00:58:26;;;;;;;10.95;4.53;;;3.10;99.90;;;;;;4990053;28;20033;-83
2021/12/12 01:00:59;;;;;;;13.93;4.35;;;3.10;99.90;;;;;;5010709;28;20091;-84
2021/12/12 01:03:29;;;;;;;11.50;4.25;;;3.10;99.90;;;;;;4993092;28;20040;-83
2021/12/12 01:05:56;;;;;;;13.52;4.80;;;3.10;99.90;;;;;;4973053;28;20052;-84
2021/12/12 01:08:21;;;;;;;14.10;4.07;;;3.10;99.90;;;;;;4993733;28;20040;-84
2021/12/12 01:11:05;;;;;;;10.48;4.47;;;3.10;99.90;;;;;;4992348;28;20034;-84
2021/12/12 01:13:31;;;;;;;12.18;4.55;;;3.10;99.90;;;;;;5010546;28;20090;-84
2021/12/12 01:16:05;;;;;;;10.77;4.25;;;3.10;99.90;;;;;;4979306;28;20034;-84
2021/12/12 01:18:34;;;;;;;6.00;3.55;;;3.10;99.90;;;;;;4976915;28;20048;-84
2021/12/12 01:21:11;;;;;;;14.32;4.97;;;3.10;99.90;;;;;;4989144;28;20383;-84
2021/12/12 01:23:46;;;;;;;9.77;4.93;;;3.10;99.90;;;;;;4995726;28;20029;-82
2021/12/12 01:26:12;;;;;;;15.13;4.63;;;3.10;99.90;;;;;;4991107;28;20095;-84
2021/12/12 01:28:40;;;;;;;11.27;3.05;;;3.00;99.90;;;;;;5010020;28;20473;-83
2021/12/12 01:31:07;;;;;;;12.23;4.38;;;3.10;99.90;;;;;;4993366;28;20075;-84
2021/12/12 01:33:35;;;;;;;10.68;4.55;;;3.00;99.90;;;;;;4978845;28;20115;-83
2021/12/12 01:36:23;;;;;;;7.53;2.63;;;3.10;99.90;;;;;;4991574;28;20048;-83
2021/12/12 01:39:00;;;;;;;14.20;4.40;;;3.10;99.90;;;;;;5009954;28;20029;-83
2021/12/12 01:41:40;;;;;;;6.65;3.05;;;3.10;99.90;;;;;;4994640;28;20026;-84
2021/12/12 01:44:16;;;;;;;6.22;2.83;;;3.10;99.90;;;;;;4985869;28;20026;-84
2021/12/12 01:46:52;;;;;;;9.52;4.18;;;3.10;99.90;;;;;;4975300;28;20057;-83
2021/12/12 01:49:21;;;;;;;18.38;3.53;;;3.20;99.90;;;;;;4987714;28;20034;-84
2021/12/12 01:51:46;;;;;;;10.55;4.45;;;3.20;99.90;;;;;;4972909;28;20466;-84
2021/12/12 01:54:13;;;;;;;12.27;4.25;;;3.20;99.90;;;;;;4975917;28;20028;-84
2021/12/12 01:56:42;;;;;;;11.15;3.83;;;3.20;99.90;;;;;;4975220;28;20018;-84
2021/12/12 01:59:08;;;;;;;11.38;4.28;;;3.20;99.90;;;;;;5006445;28;20335;-83
2021/12/12 02:02:05;;;;;;;15.60;4.88;;;3.20;99.90;;;;;;5006387;28;20080;-84
2021/12/12 02:04:34;;;;;;;9.00;4.07;;;3.20;99.90;;;;;;5007090;28;20401;-85
2021/12/12 02:07:00;;;;;;;11.43;3.53;;;3.20;99.90;;;;;;5004920;28;20038;-84
2021/12/12 02:09:25;;;;;;;9.38;3.40;;;3.20;99.90;;;;;;4975290;28;20081;-82
2021/12/12 02:11:55;;;;;;;13.63;4.25;;;3.20;99.90;;;;;;4992391;28;20492;-84
2021/12/12 02:14:22;;;;;;;7.57;3.95;;;3.20;99.90;;;;;;5006851;28;20057;-84
2021/12/12 02:16:58;;;;;;;12.93;3.55;;;3.30;99.90;;;;;;4991327;28;20117;-83
2021/12/12 02:19:31;;;;;;;7.43;3.53;;;3.30;99.90;;;;;;4993058;28;20044;-84
2021/12/12 02:35:46;;;;;;;8.85;3.85;;;3.40;99.90;;;;;;4911101;29;20118;-84
2021/12/12 02:38:14;;;;;;;6.72;3.53;;;3.40;99.90;;;;;;4980208;28;20029;-83
2021/12/12 02:40:46;;;;;;;7.13;2.75;;;3.40;99.90;;;;;;5008005;28;20557;-84
2021/12/12 02:43:14;;;;;;;7.57;3.00;;;3.40;99.90;;;;;;4973930;28;20105;-82
2021/12/12 02:45:39;;;;;;;3.10;2.00;;;3.40;99.90;;;;;;4987981;28;20105;-84
2021/12/12 02:48:07;;;;;;;12.77;3.80;;;3.50;99.90;;;;;;4991178;28;20037;-84
2021/12/12 02:50:36;;;;;;;10.52;3.63;;;3.50;99.90;;;;;;4988399;28;20037;-84
2021/12/12 02:53:07;;;;;;;16.42;4.10;;;3.50;99.90;;;;;;4964065;28;20499;-84
2021/12/12 02:55:35;;;;;;;11.43;3.40;;;3.50;99.90;;;;;;5008790;28;20083;-84
2021/12/12 02:58:01;;;;;;;5.53;3.03;;;3.50;99.90;;;;;;5003261;28;20592;-84
2021/12/12 03:00:30;;;;;;;9.30;3.03;;;3.50;99.90;;;;;;4977769;28;20030;-83
2021/12/12 03:02:59;;;;;;;9.05;3.17;;;3.50;99.90;;;;;;5008670;28;20087;-84
2021/12/12 03:05:27;;;;;;;9.38;3.67;;;3.50;99.90;;;;;;5007625;28;20110;-83
2021/12/12 03:07:52;;;;;;;13.88;4.03;;;3.50;99.90;;;;;;4990739;28;20033;-83
2021/12/12 03:10:21;;;;;;;9.43;3.42;;;3.60;99.90;;;;;;4973140;28;20042;-83
2021/12/12 03:12:46;;;;;;;8.63;2.95;;;3.60;99.90;;;;;;4975489;28;20033;-84
2021/12/12 03:15:18;;;;;;;6.32;2.85;;;3.60;99.90;;;;;;4976410;28;20125;-84
2021/12/12 03:17:45;;;;;;;8.95;3.10;;;3.60;99.90;;;;;;4989985;28;20045;-84
2021/12/12 03:20:27;;;;;;;8.45;3.08;;;3.60;99.90;;;;;;4971320;28;20439;-84
2021/12/12 03:23:30;;;;;;;8.20;2.78;;;3.60;99.90;;;;;;5000714;28;20125;-83
2021/12/12 03:26:00;;;;;;;7.47;3.10;;;3.60;99.90;;;;;;5002365;28;20041;-84
2021/12/12 03:28:28;;;;;;;12.00;3.13;;;3.60;99.90;;;;;;4989236;28;20116;-82
2021/12/12 03:30:54;;;;;;;2.72;1.75;;;3.60;99.90;;;;;;4977210;28;20417;-83
2021/12/12 03:33:20;;;;;;;8.90;3.58;;;3.60;99.90;;;;;;4985508;28;20032;-83
2021/12/12 03:35:48;;;;;;;12.05;2.60;;;3.60;99.90;;;;;;4976577;28;20033;-83
2021/12/12 03:38:13;;;;;;;7.30;3.60;;;3.60;99.90;;;;;;4976952;28;20033;-84
2021/12/12 03:40:39;;;;;;;13.63;3.08;;;3.60;99.90;;;;;;4990769;28;20048;-84
2021/12/12 03:43:06;;;;;;;10.05;2.90;;;3.70;99.90;;;;;;5005868;28;20045;-84
2021/12/12 03:45:31;;;;;;;6.72;2.67;;;3.70;99.90;;;;;;4976279;28;20747;-84
2021/12/12 03:48:06;;;;;;;7.47;2.95;;;3.70;99.90;;;;;;4984046;28;20034;-84
2021/12/12 03:50:33;;;;;;;5.45;2.63;;;3.70;99.90;;;;;;5005098;28;20052;-83
2021/12/12 03:52:59;;;;;;;7.07;2.53;;;3.70;99.90;;;;;;4988892;28;20037;-84
2021/12/12 03:55:27;;;;;;;3.47;1.95;;;3.70;99.90;;;;;;4991413;28;20026;-82
2021/12/12 03:57:53;;;;;;;12.23;3.05;;;3.70;99.90;;;;;;5008226;28;20041;-84
2021/12/12 04:00:28;;;;;;;9.35;3.08;;;3.70;99.90;;;;;;5006446;28;20453;-80
2021/12/12 04:02:54;;;;;;;9.82;3.53;;;3.70;99.90;;;;;;5005452;28;20115;-79
2021/12/12 04:05:19;;;;;;;10.15;3.47;;;3.70;99.90;;;;;;4988281;28;20057;-79
2021/12/12 04:07:46;;;;;;;7.22;2.42;;;3.70;99.90;;;;;;4970663;28;20048;-79
2021/12/12 04:10:13;;;;;;;7.75;2.92;;;3.80;99.90;;;;;;4975036;28;20565;-79
2021/12/12 04:12:39;;;;;;;8.50;2.55;;;3.80;99.90;;;;;;4988550;28;20033;-79
2021/12/12 04:15:05;;;;;;;12.25;3.88;;;3.80;99.90;;;;;;4991506;28;20397;-79
2021/12/12 04:17:31;;;;;;;12.32;3.33;;;3.80;99.90;;;;;;4975700;28;20033;-80
2021/12/12 04:19:58;;;;;;;11.00;3.72;;;3.70;99.90;;;;;;4991795;28;20056;-80
2021/12/12 04:22:24;;;;;;;15.45;4.43;;;3.70;99.90;;;;;;5004402;28;20038;-80
2021/12/12 04:24:52;;;;;;;10.48;3.42;;;3.80;99.90;;;;;;4974664;28;20029;-79
2021/12/12 04:27:18;;;;;;;10.20;3.00;;;3.70;99.90;;;;;;4984167;28;20044;-80
2021/12/12 04:29:46;;;;;;;9.77;2.90;;;3.70;99.90;;;;;;5006302;28;20041;-79
2021/12/12 04:32:16;;;;;;;8.30;2.92;;;3.70;99.90;;;;;;4975241;28;20517;-79
2021/12/12 04:34:49;;;;;;;10.82;3.63;;;3.70;99.90;;;;;;4992589;28;20033;-79
2021/12/12 04:37:15;;;;;;;7.40;3.42;;;3.70;99.90;;;;;;4995419;28;20038;-79
2021/12/12 04:39:42;;;;;;;11.45;3.28;;;3.70;99.90;;;;;;4976405;28;20856;-79
2021/12/12 04:42:14;;;;;;;11.73;3.22;;;3.70;99.90;;;;;;4987575;28;20057;-80
2021/12/12 04:44:41;;;;;;;13.68;3.45;;;3.70;99.90;;;;;;4993800;28;20043;-79
2021/12/12 04:49:56;;;;;;;11.13;3.38;;;3.70;99.90;;;;;;5028485;28;20036;-79
2021/12/12 04:52:41;;;;;;;11.73;3.33;;;3.80;99.90;;;;;;4992218;28;20042;-79
2021/12/12 04:55:13;;;;;;;11.02;2.15;;;3.80;99.90;;;;;;5007079;28;20029;-79
2021/12/12 04:57:46;;;;;;;11.93;3.47;;;3.80;99.90;;;;;;4992289;28;20506;-79
2021/12/12 05:00:18;;;;;;;10.32;3.42;;;3.80;99.90;;;;;;4990542;28;20091;-79
2021/12/12 05:03:13;;;;;;;6.07;3.13;;;3.80;99.90;;;;;;5005640;28;20042;-79
2021/12/12 05:06:13;;;;;;;8.73;3.90;;;3.80;99.90;;;;;;5007659;28;20060;-79
2021/12/12 05:08:50;;;;;;;12.07;3.42;;;3.80;99.90;;;;;;4966699;28;20037;-79
2021/12/12 05:11:29;;;;;;;5.47;2.35;;;3.80;99.90;;;;;;4995198;28;20037;-79
2021/12/12 05:13:56;;;;;;;18.52;3.90;;;3.80;99.90;;;;;;5007690;28;20539;-79
2021/12/12 05:16:28;;;;;;;12.00;4.03;;;3.80;99.90;;;;;;4992879;28;20445;-79
2021/12/12 05:19:01;;;;;;;10.52;3.90;;;3.80;99.90;;;;;;4976180;28;20034;-79
2021/12/12 05:21:29;;;;;;;10.85;3.47;;;3.80;99.90;;;;;;4971907;28;20080;-80
2021/12/12 05:23:59;;;;;;;11.48;3.45;;;3.80;99.90;;;;;;5005627;28;20128;-79
2021/12/12 05:26:33;;;;;;;9.95;4.35;;;3.80;99.90;;;;;;4987171;28;20022;-80
2021/12/12 05:29:42;;;;;;;15.82;4.10;;;3.80;99.90;;;;;;4987176;28;20041;-79
2021/12/12 05:32:08;;;;;;;7.68;3.58;;;3.80;99.90;;;;;;5024130;28;20026;-79
2021/12/12 05:34:35;;;;;;;7.13;2.97;;;3.80;99.90;;;;;;5007786;28;20075;-79
2021/12/12 05:37:01;;;;;;;6.25;2.83;;;3.90;99.90;;;;;;4976611;28;20022;-78
2021/12/12 05:39:27;;;;;;;12.68;3.83;;;3.90;99.90;;;;;;4988557;28;20516;-80
2021/12/12 05:41:53;;;;;;;11.95;4.28;;;3.90;99.90;;;;;;4992152;28;20119;-80
2021/12/12 05:44:18;;;;;;;11.57;4.22;;;3.90;99.90;;;;;;4976087;28;20037;-79
2021/12/12 05:46:44;;;;;;;11.10;4.10;;;3.90;99.90;;;;;;4976702;28;20034;-79
2021/12/12 05:49:10;;;;;;;14.25;3.58;;;3.90;99.90;;;;;;5009112;28;20421;-80
2021/12/12 05:51:35;;;;;;;7.72;3.55;;;3.90;99.90;;;;;;4972130;28;20030;-79
2021/12/12 05:54:01;;;;;;;12.80;4.30;;;3.90;99.90;;;;;;4999105;28;20033;-79
2021/12/12 05:56:29;;;;;;;11.63;3.97;;;3.90;99.90;;;;;;4974097;28;20062;-79
2021/12/12 05:58:55;;;;;;;11.27;3.75;;;3.90;99.90;;;;;;5008986;28;20029;-79
2021/12/12 06:01:20;;;;;;;16.85;4.28;;;3.90;99.90;;;;;;5007252;28;20945;-79
2021/12/12 06:03:46;;;;;;;9.45;3.90;;;3.90;99.90;;;;;;4978850;28;20037;-79
2021/12/12 06:06:14;;;;;;;8.18;3.53;;;3.90;99.90;;;;;;5007108;28;20037;-79
2021/12/12 06:08:41;;;;;;;8.40;3.65;;;3.90;99.90;;;;;;4977649;28;20609;-79
2021/12/12 06:11:06;;;;;;;10.90;3.75;;;4.00;99.90;;;;;;4969524;28;20080;-79
2021/12/12 06:13:32;;;;;;;5.35;2.95;;;4.10;99.90;;;;;;4955908;28;20478;-79
2021/12/12 06:16:00;;;;;;;12.00;3.25;;;4.00;99.90;;;;;;5004365;28;20025;-80
2021/12/12 06:18:27;;;;;;;9.23;2.97;;;4.00;99.90;;;;;;4951503;28;1062613;-79
2021/12/12 06:20:52;;;;;;;6.20;2.42;;;4.00;99.90;;;;;;5005102;28;20115;-79
2021/12/12 06:23:18;;;;;;;2.15;1.73;;;4.10;99.90;;;;;;4967191;28;20195;-79
2021/12/12 06:25:45;;;;;;;6.95;4.03;;;4.10;99.90;;;;;;4961447;28;20040;-79
2021/12/12 06:28:20;;;;;;;6.82;3.67;;;4.10;99.90;;;;;;4983470;28;20026;-80
2021/12/12 06:30:46;;;;;;;6.47;3.35;;;4.10;99.90;;;;;;5005565;28;20044;-79
2021/12/12 06:33:11;;;;;;;7.40;3.05;;;4.10;99.90;;;;;;4976261;28;20037;-80
2021/12/12 06:35:37;;;;;;;8.75;3.13;;;4.20;99.90;;;;;;4992525;28;20402;-80
2021/12/12 06:38:04;;;;;;;12.27;3.75;;;4.20;99.90;;;;;;4987182;28;20036;-79
2021/12/12 06:40:29;;;;;;;6.35;2.60;;;4.20;99.90;;;;;;4972464;28;20045;-79
2021/12/12 06:42:55;;;;;;;5.47;2.60;;;4.20;99.90;;;;;;4990210;28;20042;-79
2021/12/12 06:45:20;;;;;;;2.95;1.70;;;4.20;99.90;;;;;;5005869;28;20049;-79
2021/12/12 06:47:46;;;;;;;10.43;3.65;;;4.30;99.90;;;;;;4991603;28;20496;-79
2021/12/12 06:50:11;;;;;;;6.53;3.40;;;4.30;99.90;;;;;;5004135;28;20116;-80
2021/12/12 06:52:37;;;;;;;3.10;1.35;;;4.30;99.90;;;;;;4974848;28;20038;-79
2021/12/12 06:55:07;;;;;;;9.95;3.30;;;4.30;99.90;;;;;;4968817;28;20091;-78
2021/12/12 06:57:33;;;;;;;6.00;3.00;;;4.30;99.90;;;;;;4987750;28;20025;-79
2021/12/12 06:59:58;;;;;;;4.03;2.50;;;4.30;99.90;;;;;;4970232;28;20052;-79
2021/12/12 07:02:24;;;;;;;8.90;3.38;;;4.40;99.90;;;;;;5005119;28;20038;-79
2021/12/12 07:04:54;;;;;;;6.85;2.45;;;4.40;99.90;;;;;;4975033;28;22521;-79
2021/12/12 07:07:19;;;;;;;5.00;2.30;;;4.40;99.90;;;;;;4974889;28;20076;-79
2021/12/12 07:09:46;;;;;;;6.45;3.42;;;4.40;99.90;;;;;;4992092;28;20037;-79
2021/12/12 07:12:13;;;;;;;6.82;2.67;;;4.40;99.90;;;;;;5006671;28;20037;-80
2021/12/12 07:14:39;;;;;;;5.40;3.17;;;4.40;99.90;;;;;;4991227;28;20068;-79
2021/12/12 07:17:05;;;;;;;5.40;2.97;;;4.40;99.90;;;;;;5007351;28;20030;-79
2021/12/12 07:19:31;;;;;;;3.97;2.05;;;4.40;99.90;;;;;;4977586;28;20042;-80
2021/12/12 07:21:59;;;;;;;6.40;2.83;;;4.50;99.90;;;;;;5003638;28;20509;-79
2021/12/12 07:24:25;;;;;;;4.80;2.00;;;4.50;99.90;;;;;;4999873;28;20034;-79
2021/12/12 07:26:50;;;;;;;4.47;2.00;;;4.50;99.90;;;;;;5004923;28;20046;-80
2021/12/12 07:29:16;;;;;;;3.72;1.65;;;4.60;99.90;;;;;;5005723;28;20026;-79
2021/12/12 07:31:42;;;;;;;4.13;2.25;;;4.60;99.90;;;;;;4965334;28;20022;-79
2021/12/12 07:34:11;;;;;;;5.85;2.45;;;4.60;99.90;;;;;;5006606;28;20083;-79
2021/12/12 07:36:40;;;;;;;6.30;2.58;;;4.60;99.90;;;;;;4989313;28;20017;-79
2021/12/12 07:39:09;;;;;;;6.53;2.42;;;4.60;99.90;;;;;;4987267;28;20044;-79
2021/12/12 07:41:36;;;;;;;3.30;2.50;;;4.60;99.90;;;;;;4990466;28;20022;-79
2021/12/12 07:44:04;;;;;;;2.78;1.45;;;4.70;99.90;;;;;;4986560;28;20034;-79
2021/12/12 07:46:30;;;;;;;5.35;1.83;;;4.70;99.90;;;;;;4993967;28;20085;-79
2021/12/12 07:48:56;;;;;;;3.22;2.17;;;4.70;99.90;;;;;;4988158;28;20045;-79
2021/12/12 07:51:22;;;;;;;3.17;2.45;;;4.80;99.90;;;;;;5002817;28;20037;-80
2021/12/12 07:53:52;;;;;;;4.57;2.13;;;4.80;99.90;;;;;;4992356;28;20026;-79
2021/12/12 07:56:21;;;;;;;3.33;2.17;;;4.80;99.90;;;;;;4971165;28;20541;-79
2021/12/12 07:58:47;;;;;;;6.07;1.98;;;4.80;99.90;;;;;;4991285;28;20550;-79
2021/12/12 08:01:13;;;;;;;3.88;1.88;;;4.90;99.90;;;;;;4967372;28;20033;-79
2021/12/12 08:03:39;;;;;;;4.88;2.20;;;4.80;99.90;;;;;;4971539;28;20083;-79
2021/12/12 08:06:05;;;;;;;4.40;2.65;;;4.80;99.90;;;;;;5011106;28;20033;-79
2021/12/12 08:08:33;;;;;;;1.45;1.35;;;4.90;99.90;;;;;;4979990;28;20033;-79
2021/12/12 08:10:59;;;;;;;3.47;2.15;;;4.90;99.90;;;;;;4973577;28;20143;-79
2021/12/12 08:13:35;;;;;;;6.53;1.92;;;4.90;99.90;;;;;;4978511;28;20072;-79
2021/12/12 08:16:01;;;;;;;4.13;2.45;;;4.90;99.90;;;;;;4986713;28;20034;-79
2021/12/12 08:18:27;;;;;;;4.80;2.60;;;4.90;99.90;;;;;;4977529;28;20037;-80
2021/12/12 08:20:52;;;;;;;2.10;1.35;;;4.90;99.90;;;;;;4976094;28;20037;-79
2021/12/12 08:23:18;;;;;;;2.60;2.08;;;5.00;99.90;;;;;;4977769;28;20092;-79
2021/12/12 08:25:44;;;;;;;7.75;2.50;;;5.00;99.90;;;;;;5010442;28;20041;-80
2021/12/12 08:28:10;;;;;;;3.45;3.05;;;5.00;99.90;;;;;;4971692;28;20026;-79
2021/12/12 08:30:36;;;;;;;4.32;2.08;;;5.00;99.90;;;;;;4977007;28;20053;-80
2021/12/12 08:33:02;;;;;;;3.92;2.47;;;5.00;99.90;;;;;;4978340;28;20040;-79
2021/12/12 08:35:28;;;;;;;7.03;2.88;;;5.00;99.90;;;;;;4992175;28;20646;-78
2021/12/12 08:37:56;;;;;;;2.00;1.52;;;5.10;99.90;;;;;;4993636;28;20038;-79
2021/12/12 08:40:24;;;;;;;3.60;2.13;;;5.10;99.90;;;;;;4991723;28;20409;-80
2021/12/12 08:42:50;;;;;;;1.58;1.27;;;5.10;99.90;;;;;;4976967;28;20033;-79
2021/12/12 08:45:17;;;;;;;3.13;2.63;;;5.20;99.90;;;;;;4986310;28;20049;-79
2021/12/12 08:47:46;;;;;;;2.35;1.70;;;5.10;99.90;;;;;;4992889;28;20034;-79
2021/12/12 08:50:13;;;;;;;3.10;2.03;;;5.10;99.90;;;;;;4997584;28;20512;-79
2021/12/12 08:52:41;;;;;;;1.33;1.23;;;5.10;99.90;;;;;;5006531;28;20493;-80
2021/12/12 08:55:15;;;;;;;3.17;1.85;;;5.10;99.90;;;;;;5005927;28;20064;-80
2021/12/12 08:57:50;;;;;;;3.60;2.08;;;5.20;99.90;;;;;;4986064;28;20025;-79
2021/12/12 09:00:21;;;;;;;5.25;3.17;;;5.20;99.90;;;;;;4976422;28;20037;-79
2021/12/12 09:02:48;;;;;;;3.65;2.17;;;5.20;99.90;;;;;;5008101;28;20038;-79
2021/12/12 09:05:17;;;;;;;3.72;2.33;;;5.20;99.90;;;;;;4989999;28;20397;-79
2021/12/12 09:07:46;;;;;;;3.38;1.77;;;5.20;99.90;;;;;;4973358;28;20033;-80
2021/12/12 09:10:35;;;;;;;2.53;2.08;;;5.30;99.90;;;;;;4989411;28;20026;-79
2021/12/12 09:13:13;;;;;;;3.92;2.83;;;5.30;99.90;;;;;;4993456;28;20038;-79
2021/12/12 09:15:40;;;;;;;4.20;2.92;;;5.30;99.90;;;;;;4989743;28;20030;-80
2021/12/12 09:18:12;;;;;;;3.58;3.25;;;5.30;99.90;;;;;;5009855;28;20541;-84
2021/12/12 09:20:48;;;;;;;4.43;3.00;;;5.30;99.90;;;;;;4974923;28;20045;-84
2021/12/12 09:23:21;;;;;;;1.92;1.45;;;5.30;99.90;;;;;;4978972;28;20033;-85
2021/12/12 09:25:57;;;;;;;6.25;3.80;;;5.40;99.90;;;;;;5010088;28;20037;-85
2021/12/12 09:28:46;;;;;;;5.97;3.85;;;5.40;99.90;;;;;;4990776;28;20108;-85
2021/12/12 09:31:38;;;;;;;3.72;2.95;;;5.40;99.90;;;;;;4951384;28;20045;-86
2021/12/12 09:34:10;;;;;;;3.50;2.30;;;5.40;99.90;;;;;;4996465;28;20034;-86
2021/12/12 09:36:42;;;;;;;3.30;2.83;;;5.50;99.90;;;;;;4992592;28;20037;-85
2021/12/12 09:39:11;;;;;;;9.63;5.80;;;5.50;99.90;;;;;;4975311;28;20764;-85
2021/12/12 09:41:42;;;;;;;7.00;4.43;;;5.50;99.90;;;;;;4990017;28;20104;-83
2021/12/12 09:44:29;;;;;;;6.63;3.83;;;5.50;99.90;;;;;;5020338;28;20080;-85
2021/12/12 09:47:36;;;;;;;10.48;5.97;;;5.50;99.90;;;;;;5005821;28;20116;-86
2021/12/12 09:53:47;;;;;;;9.55;5.45;;;5.60;99.90;;;;;;5023791;28;20323;-84
2021/12/12 09:56:29;;;;;;;6.50;4.07;;;5.60;99.90;;;;;;5007377;28;20022;-85
2021/12/12 09:59:23;;;;;;;6.45;3.45;;;5.70;99.90;;;;;;4991490;28;20033;-84
2021/12/12 10:02:12;;;;;;;5.70;4.03;;;5.70;99.90;;;;;;4986615;28;20490;-84
2021/12/12 10:04:49;;;;;;;7.45;4.15;;;5.70;99.90;;;;;;5010115;28;20095;-85
2021/12/12 10:07:30;;;;;;;6.70;3.58;;;5.70;99.90;;;;;;5005148;28;20022;-86
2021/12/12 10:09:58;;;;;;;5.40;3.42;;;5.70;99.90;;;;;;4971041;28;20037;-85
2021/12/12 10:12:30;;;;;;;7.05;3.13;;;5.70;99.90;;;;;;4990764;28;20446;-85
2021/12/12 10:14:58;;;;;;;5.93;3.97;;;5.80;99.90;;;;;;4985148;28;20037;-85
2021/12/12 10:17:44;;;;;;;9.30;6.15;;;5.80;99.90;;;;;;4999372;28;20029;-84
2021/12/12 10:20:36;;;;;;;4.68;2.80;;;5.80;99.90;;;;;;4986709;28;20037;-85
2021/12/12 10:23:15;;;;;;;9.43;3.25;;;5.80;99.90;;;;;;4984433;28;20057;-85
2021/12/12 10:26:04;;;;;;;6.53;3.10;;;5.90;99.90;;;;;;5000061;28;20622;-85
2021/12/12 10:28:41;;;;;;;8.15;5.30;;;5.90;99.90;;;;;;5000500;28;20104;-85
2021/12/12 10:31:29;;;;;;;6.57;3.85;;;5.90;99.90;;;;;;4975645;28;20090;-85
2021/12/12 10:33:59;;;;;;;10.43;4.50;;;5.90;99.90;;;;;;4996015;28;20041;-85
2021/12/12 10:36:33;;;;;;;15.15;3.92;;;6.00;99.90;;;;;;4975274;28;20029;-85
2021/12/12 10:39:04;;;;;;;8.85;3.88;;;6.00;99.90;;;;;;4992656;28;20036;-83
2021/12/12 10:41:38;;;;;;;8.05;4.47;;;6.00;99.90;;;;;;5003263;28;20043;-85
2021/12/12 10:44:09;;;;;;;7.22;4.05;;;6.00;99.90;;;;;;4977347;28;20022;-84
2021/12/12 10:47:12;;;;;;;4.78;3.80;;;6.10;99.90;;;;;;4992483;28;20117;-86
2021/12/12 10:50:11;;;;;;;15.10;6.85;;;6.10;99.90;;;;;;5007619;28;20025;-85
2021/12/12 10:52:43;;;;;;;7.40;4.25;;;6.10;99.90;;;;;;4981207;28;20079;-85
2021/12/12 10:55:24;;;;;;;4.97;3.63;;;6.20;99.90;;;;;;4985577;28;20033;-86
2021/12/12 10:57:55;;;;;;;6.60;4.15;;;6.20;99.90;;;;;;4987238;28;20030;-86
2021/12/12 11:00:23;;;;;;;9.73;5.38;;;6.20;99.90;;;;;;4992026;28;20037;-86
2021/12/12 11:03:14;;;;;;;4.72;3.45;;;6.20;99.90;;;;;;5007372;28;20022;-87
2021/12/12 11:05:42;;;;;;;5.28;4.15;;;6.30;99.90;;;;;;4991536;28;20037;-86
2021/12/12 11:08:14;;;;;;;6.28;2.78;;;6.30;99.90;;;;;;4974869;28;20026;-86
2021/12/12 11:10:41;;;;;;;3.20;1.92;;;6.30;99.90;;;;;;5004983;28;20490;-86
2021/12/12 11:13:15;;;;;;;3.75;1.77;;;6.30;99.90;;;;;;4980379;28;20451;-86
2021/12/12 11:15:44;;;;;;;3.95;2.38;;;6.40;99.90;;;;;;4978883;28;20033;-85
2021/12/12 11:18:11;;;;;;;3.72;2.67;;;6.40;99.90;;;;;;4988248;28;20511;-86
2021/12/12 11:20:39;;;;;;;4.50;3.42;;;6.40;99.90;;;;;;4988328;28;20037;-85
2021/12/12 11:23:16;;;;;;;6.10;2.85;;;6.40;99.90;;;;;;4989393;28;20030;-85
2021/12/12 11:25:53;;;;;;;6.15;3.20;;;6.50;99.90;;;;;;5008121;28;20432;-85
2021/12/12 11:28:34;;;;;;;18.13;2.25;;;6.50;99.90;;;;;;4991496;28;21369;-85
2021/12/12 11:31:04;;;;;;;3.70;1.83;;;6.50;99.90;;;;;;4972683;28;20029;-85
2021/12/12 11:33:32;;;;;;;3.92;2.42;;;6.50;99.90;;;;;;4972634;28;20056;-86
2021/12/12 11:35:58;;;;;;;2.92;2.38;;;6.50;99.90;;;;;;4976420;28;20078;-85
2021/12/12 11:38:50;;;;;;;4.35;3.13;;;6.60;99.90;;;;;;4626821;28;10000029;-85
2021/12/12 11:41:35;;;;;;;2.45;1.55;;;6.60;99.90;;;;;;5009099;28;20042;-85
2021/12/12 11:44:21;;;;;;;6.68;2.95;;;6.70;99.90;;;;;;4987840;28;20180;-86
2021/12/12 11:46:52;;;;;;;4.53;3.03;;;6.70;99.90;;;;;;4985094;28;20037;-87
2021/12/12 11:49:44;;;;;;;3.22;1.98;;;6.70;99.90;;;;;;5004413;28;20029;-86
2021/12/12 11:52:12;;;;;;;3.95;2.83;;;6.70;99.90;;;;;;4993318;28;20101;-86
2021/12/12 11:54:53;;;;;;;6.43;3.92;;;6.70;99.90;;;;;;4992177;28;20033;-86
2021/12/12 11:57:27;;;;;;;4.43;3.25;;;6.70;99.90;;;;;;5005553;28;20061;-86
2021/12/12 12:00:08;;;;;;;3.80;2.90;;;6.80;99.90;;;;;;4968103;28;20038;-86
2021/12/12 12:02:37;;;;;;;2.78;2.38;;;6.80;99.90;;;;;;5002397;28;20457;-86
2021/12/12 12:05:25;;;;;;;2.15;1.55;;;6.80;99.90;;;;;;4987665;28;20493;-86
2021/12/12 12:08:18;;;;;;;2.70;1.85;;;6.90;99.90;;;;;;4988884;28;20037;-86
2021/12/12 12:10:59;;;;;;;2.33;1.83;;;6.80;99.90;;;;;;4989339;28;20041;-86
2021/12/12 12:13:52;;;;;;;2.55;2.22;;;6.80;99.90;;;;;;5008520;28;20041;-86
2021/12/12 12:16:42;;;;;;;3.55;2.38;;;6.80;99.90;;;;;;5008708;28;20069;-86
2021/12/12 12:19:45;;;;;;;5.30;3.17;;;6.80;99.90;;;;;;5002343;28;20049;-86
2021/12/12 12:22:33;;;;;;;1.10;1.00;;;6.80;99.90;;;;;;5028565;28;20034;-85
2021/12/12 12:25:19;;;;;;;3.17;2.60;;;6.90;99.90;;;;;;4995205;28;20033;-86
2021/12/12 12:28:06;;;;;;;5.03;1.15;;;6.90;99.90;;;;;;4996726;28;20043;-85
2021/12/12 12:30:31;;;;;;;3.72;3.33;;;6.90;99.90;;;;;;4993487;28;20060;-85
2021/12/12 12:33:02;;;;;;;2.67;2.42;;;7.00;99.90;;;;;;5024694;28;20029;-86
2021/12/12 12:36:05;;;;;;;6.53;2.35;;;6.90;99.90;;;;;;5028040;28;20308;-86
2021/12/12 12:39:08;;;;;;;2.85;2.00;;;6.90;99.90;;;;;;5011167;28;20061;-85
2021/12/12 12:42:01;;;;;;;1.40;1.30;;;6.90;99.90;;;;;;5006111;28;20041;-86
2021/12/12 12:45:20;;;;;;;4.13;2.55;;;7.00;99.90;;;;;;5021633;28;20029;-86
2021/12/12 12:48:14;;;;;;;2.53;1.75;;;7.00;99.90;;;;;;5003663;28;20041;-86
2021/12/12 12:50:49;;;;;;;2.75;2.25;;;7.00;99.90;;;;;;4998525;28;20092;-86
2021/12/12 12:53:43;;;;;;;2.60;2.15;;;7.00;99.90;;;;;;5021705;28;20026;-85
2021/12/12 12:56:32;;;;;;;3.55;2.97;;;7.00;99.90;;;;;;4991855;28;20033;-86
2021/12/12 12:58:58;;;;;;;3.70;3.05;;;7.00;99.90;;;;;;4986063;28;20033;-87
2021/12/12 13:01:46;;;;;;;2.55;2.08;;;7.00;99.90;;;;;;5008591;28;20504;-86
2021/12/12 13:05:03;;;;;;;4.05;2.85;;;7.00;99.90;;;;;;4984457;28;20081;-86
2021/12/12 13:07:40;;;;;;;4.72;2.75;;;6.90;99.90;;;;;;4984379;28;20064;-86
2021/12/12 13:10:10;;;;;;;3.55;2.35;;;7.00;99.90;;;;;;5011416;28;20441;-87
2021/12/12 13:12:57;;;;;;;2.10;1.83;;;7.00;99.90;;;;;;4992626;28;20033;-87
2021/12/12 13:15:47;;;;;;;3.35;2.67;;;7.00;99.90;;;;;;5007239;28;20084;-86
2021/12/12 13:18:32;;;;;;;2.70;1.63;;;7.00;99.90;;;;;;5006241;28;20041;-85
2021/12/12 13:21:03;;;;;;;4.72;3.45;;;7.00;99.90;;;;;;5010280;28;20087;-87
2021/12/12 13:23:56;;;;;;;2.45;2.15;;;7.00;99.90;;;;;;5011484;28;20039;-85
2021/12/12 13:26:28;;;;;;;2.53;1.92;;;7.00;99.90;;;;;;5024032;28;20052;-87
2021/12/12 13:29:15;;;;;;;2.10;1.70;;;7.00;99.90;;;;;;5006820;28;20037;-86
2021/12/12 13:32:02;;;;;;;2.05;1.60;;;7.10;99.90;;;;;;5009131;28;20026;-86
2021/12/12 13:35:27;;;;;;;1.75;1.40;;;7.10;99.90;;;;;;4985842;28;20030;-86
2021/12/12 13:37:56;;;;;;;3.50;2.78;;;7.10;99.90;;;;;;4949405;28;20417;-86
2021/12/12 13:40:45;;;;;;;3.40;2.45;;;7.10;99.90;;;;;;4918916;28;20043;-86
2021/12/12 13:43:47;;;;;;;2.60;1.85;;;7.10;99.90;;;;;;4960711;28;20037;-86